Du har inga inställningar för hoppväder.nu

Hoppväder.nu

Senast uppdaterat 02:40

UTC-tid

2021-10-25 kl. 00:40


Sol och måne

Solen går upp 8:12 och går ner 18:15 (beräknade cirkatider)
Nästa fullmåne blir om 25 dagar (2021-11-19)

METAR

ESOE (Örebro)
(20 minuter sedan)
ESOE 250020Z AUTO 20010KT 9999 NCD 08/04 Q1017=



ESOK (Karlstad)
(20 minuter sedan)
ESOK 250020Z AUTO 22010KT 9999 SCT024/// 08/07 Q1015=



ESGR (Skövde)
(20 minuter sedan)
ESGR 250020Z AUTO 17007KT 9999 FEW030/// 05/03 Q1017=



ESSD (Borlänge)
(20 minuter sedan)
ESSD 250020Z AUTO 23016KT 9999 FEW012/// BKN015/// BKN039/// 09/07 Q1012=



ESOW (Västerås)
(20 minuter sedan)
ESOW 250020Z AUTO 22013KT 9999 OVC062/// 10/04 Q1016=



TAF

ESOE (Örebro)
(1510 minuter sedan)
ESOE 242330Z 2500/2508 20012KT 9999 SCT045=



ESOK (Karlstad)
ESOK



ESGR (Skövde)
ESGR



ESSD (Borlänge)
ESSD



ESOW (Västerås)
ESOW





Kodnycklar till TAF och METAR






LHP

(Örebro är område se32g i Delområde 4)

Prognos är inte uppdaterad






Preliminär prognos